Tortola's Pride — HO-3796 — position and weather

sailwx.info

Track history (hours):
 
Tides and Currents Weather Stations Pressure Air Temp Water Temp Dewpoint Dewpoint Depression Visibility Wind Speed Wind Dir Waves Ship Positions

Tortola's Pride

Last reported at 2015-Jul-03 12:33 UTC. Time now 2015-Jul-04 17:06 UTC.
Position N 18°23' W 064°39'.

Length 49 m; draft 2.8 m.

Type: Cargo ship. MMSI: 355921000.

Date/timePositionNaut miles runAvg speedWind from/ knotsBaromVisibWave heightAir tempDewpointWater temp
2015-Jul-03 12:33N 18°23' W 064°39'8 7.6
2015-Jul-03 11:33N 18°23' W 064°47'8 8.1
2015-Jul-03 10:33N 18°26' W 064°55'  
2015-Jul-01 04:05N 18°26' W 064°57'5 9.0
2015-Jul-01 03:33N 18°25' W 064°52'9 8.8
2015-Jul-01 02:33N 18°23' W 064°43'  
2015-Jun-27 03:14N 18°25' W 064°36'5 7.9
2015-Jun-27 02:33N 18°23' W 064°41'8 8.3
2015-Jun-27 01:32N 18°19' W 064°50'8 0.2
2015-Jun-25 03:17N 18°26' W 064°55'7 9.3
2015-Jun-25 02:33N 18°21' W 064°50'3 2.8
2015-Jun-25 01:33N 18°20' W 064°48'0 0.0
2015-Jun-25 00:33N 18°20' W 064°48'0 0.0
2015-Jun-24 23:34N 18°20' W 064°48'0 0.0
2015-Jun-24 22:33N 18°20' W 064°48'0 0.0
2015-Jun-24 21:33N 18°20' W 064°48'0 0.0
2015-Jun-24 20:33N 18°20' W 064°48'0 0.0
2015-Jun-24 19:33N 18°20' W 064°48'0 0.0
2015-Jun-24 18:33N 18°20' W 064°48'0 0.0
2015-Jun-24 17:34N 18°20' W 064°48'0 0.0
2015-Jun-24 16:33N 18°20' W 064°48'0 0.0
2015-Jun-24 15:26N 18°20' W 064°48'1 0.6
2015-Jun-24 14:34N 18°19' W 064°48'5 4.7
2015-Jun-24 13:33N 18°23' W 064°45'  
Track history (hours):
 
Tides and Currents Weather Stations Pressure Air Temp Water Temp Dewpoint Dewpoint Depression Visibility Wind Speed Wind Dir Waves Ship Positions

Tortola's Pride

Last reported at 2015-Jul-03 12:33 UTC. Time now 2015-Jul-04 17:06 UTC.
Position N 18°23' W 064°39'.

Length 49 m; draft 2.8 m.

Type: Cargo ship. MMSI: 355921000.

Date/timePositionNaut miles runAvg speedWind from/ knotsBaromVisibWave heightAir tempDewpointWater temp
2015-Jul-03 12:33N 18°23' W 064°39'8 7.6
2015-Jul-03 11:33N 18°23' W 064°47'8 8.1
2015-Jul-03 10:33N 18°26' W 064°55'  
2015-Jul-01 04:05N 18°26' W 064°57'5 9.0
2015-Jul-01 03:33N 18°25' W 064°52'9 8.8
2015-Jul-01 02:33N 18°23' W 064°43'  
2015-Jun-27 03:14N 18°25' W 064°36'5 7.9
2015-Jun-27 02:33N 18°23' W 064°41'8 8.3
2015-Jun-27 01:32N 18°19' W 064°50'8 0.2
2015-Jun-25 03:17N 18°26' W 064°55'7 9.3
2015-Jun-25 02:33N 18°21' W 064°50'3 2.8
2015-Jun-25 01:33N 18°20' W 064°48'0 0.0
2015-Jun-25 00:33N 18°20' W 064°48'0 0.0
2015-Jun-24 23:34N 18°20' W 064°48'0 0.0
2015-Jun-24 22:33N 18°20' W 064°48'0 0.0
2015-Jun-24 21:33N 18°20' W 064°48'0 0.0
2015-Jun-24 20:33N 18°20' W 064°48'0 0.0
2015-Jun-24 19:33N 18°20' W 064°48'0 0.0
2015-Jun-24 18:33N 18°20' W 064°48'0 0.0
2015-Jun-24 17:34N 18°20' W 064°48'0 0.0
2015-Jun-24 16:33N 18°20' W 064°48'0 0.0
2015-Jun-24 15:26N 18°20' W 064°48'1 0.6
2015-Jun-24 14:34N 18°19' W 064°48'5 4.7
2015-Jun-24 13:33N 18°23' W 064°45'  

Dump ship's entire track history